METAR Data
IDs: Format: Raw Decoded Include TAF

Data at: 1803 UTC 03 Jul 2020

KDHN 031753Z 26007KT 10SM VCTS SCT036 BKN050 33/23 A2996 RMK AO2 LTG DSNT SE SLP137 T03330233 10339 20250 56011